CPA614 VTBS-VHHX
Flight info
| Callsign | CPA614 |
|---|---|
| Flight time | N/A |
| Altitude | 39000 |
| Route | SELKA1E SELKA A1 SANOT Y15 GUROK A202 VILAO/K0909F390 A202 ASSAD/K0909S1190 A202 SIKOU/N0493F391 |
| Aircraft | B742/H-SDFHIRWXY/L |
Departure
| Time | 2026-05-05 14:36 |
|---|---|
| Airport | Suvarnabhumi Airport (VTBS) |
Arrival
| Time | N/A |
|---|---|
| Airport | Hong Kong International Airport Kai Tak (VHHX) |
| Time | Latitude | Longitude | Altitude | Speed | Heading |
|---|---|---|---|---|---|
| 2026-05-05 14:09 | 13.68208 | 100.74526 | 16 ft | 0 kts | 14° |
| 2026-05-05 14:10 | 13.68206 | 100.74526 | 16 ft | 2 kts | 14° |
| 2026-05-05 14:10 | 13.68192 | 100.74522 | 16 ft | 2 kts | 14° |
| 2026-05-05 14:10 | 13.68177 | 100.74518 | 16 ft | 2 kts | 14° |
| 2026-05-05 14:10 | 13.68162 | 100.74514 | 16 ft | 2 kts | 14° |
| 2026-05-05 14:11 | 13.68148 | 100.74511 | 16 ft | 2 kts | 14° |
| 2026-05-05 14:11 | 13.68139 | 100.74508 | 16 ft | 2 kts | 12° |
| 2026-05-05 14:11 | 13.68125 | 100.74509 | 16 ft | 2 kts | 338° |
| 2026-05-05 14:11 | 13.68112 | 100.74517 | 16 ft | 2 kts | 311° |
| 2026-05-05 14:12 | 13.68106 | 100.74528 | 16 ft | 0 kts | 286° |
| 2026-05-05 14:12 | 13.68104 | 100.74535 | 16 ft | 0 kts | 284° |
| 2026-05-05 14:19 | 13.68104 | 100.74534 | 16 ft | 0 kts | 284° |
| 2026-05-05 14:19 | 13.68113 | 100.74500 | 16 ft | 9 kts | 284° |
| 2026-05-05 14:19 | 13.68136 | 100.74401 | 16 ft | 18 kts | 283° |
| 2026-05-05 14:19 | 13.68175 | 100.74241 | 16 ft | 27 kts | 283° |
| 2026-05-05 14:20 | 13.68225 | 100.74081 | 16 ft | 15 kts | 321° |
| 2026-05-05 14:20 | 13.68325 | 100.74070 | 15 ft | 13 kts | 13° |
| 2026-05-05 14:20 | 13.68417 | 100.74096 | 14 ft | 13 kts | 15° |
| 2026-05-05 14:20 | 13.68493 | 100.74116 | 16 ft | 10 kts | 14° |
| 2026-05-05 14:21 | 13.68564 | 100.74134 | 16 ft | 10 kts | 14° |
| 2026-05-05 14:21 | 13.68634 | 100.74151 | 16 ft | 9 kts | 5° |
| 2026-05-05 14:21 | 13.68690 | 100.74123 | 16 ft | 9 kts | 314° |
| 2026-05-05 14:21 | 13.68742 | 100.74087 | 16 ft | 9 kts | 348° |
| 2026-05-05 14:22 | 13.68805 | 100.74097 | 16 ft | 9 kts | 15° |
| 2026-05-05 14:22 | 13.68874 | 100.74116 | 16 ft | 10 kts | 15° |
| 2026-05-05 14:22 | 13.68952 | 100.74136 | 16 ft | 12 kts | 14° |
| 2026-05-05 14:22 | 13.69039 | 100.74159 | 16 ft | 13 kts | 14° |
| 2026-05-05 14:23 | 13.69134 | 100.74183 | 16 ft | 14 kts | 14° |
| 2026-05-05 14:23 | 13.69239 | 100.74210 | 16 ft | 16 kts | 14° |
| 2026-05-05 14:23 | 13.69352 | 100.74239 | 16 ft | 17 kts | 14° |
| 2026-05-05 14:23 | 13.69472 | 100.74271 | 16 ft | 18 kts | 14° |
| 2026-05-05 14:24 | 13.69600 | 100.74305 | 16 ft | 19 kts | 14° |
| 2026-05-05 14:24 | 13.69738 | 100.74342 | 16 ft | 20 kts | 14° |
| 2026-05-05 14:24 | 13.69875 | 100.74368 | 16 ft | 16 kts | 333° |
| 2026-05-05 14:24 | 13.69919 | 100.74271 | 16 ft | 16 kts | 284° |
| 2026-05-05 14:25 | 13.69947 | 100.74155 | 16 ft | 17 kts | 284° |
| 2026-05-05 14:25 | 13.69977 | 100.74031 | 16 ft | 18 kts | 284° |
| 2026-05-05 14:25 | 13.70006 | 100.73901 | 16 ft | 18 kts | 266° |
| 2026-05-05 14:25 | 13.69929 | 100.73822 | 16 ft | 0 kts | 196° |
| 2026-05-05 14:26 | 13.69928 | 100.73822 | 16 ft | 0 kts | 196° |
| 2026-05-05 14:35 | 13.69829 | 100.73795 | 16 ft | 47 kts | 194° |
| 2026-05-05 14:35 | 13.69251 | 100.73645 | 16 ft | 120 kts | 194° |
| 2026-05-05 14:36 | 13.68233 | 100.73383 | 31 ft | 178 kts | 194° |
| 2026-05-05 14:36 | 13.66971 | 100.73038 | 544 ft | 189 kts | 195° |
| 2026-05-05 14:36 | 13.65697 | 100.72729 | 1281 ft | 192 kts | 190° |
| 2026-05-05 14:36 | 13.64397 | 100.72468 | 2072 ft | 192 kts | 192° |
| 2026-05-05 14:37 | 13.63116 | 100.72140 | 2787 ft | 195 kts | 193° |
| 2026-05-05 14:37 | 13.61804 | 100.71751 | 3472 ft | 198 kts | 195° |
| 2026-05-05 14:37 | 13.60452 | 100.71410 | 4148 ft | 200 kts | 188° |
| 2026-05-05 14:37 | 13.59052 | 100.71119 | 4655 ft | 215 kts | 190° |
| 2026-05-05 14:38 | 13.57502 | 100.70776 | 5023 ft | 239 kts | 191° |
| 2026-05-05 14:38 | 13.55802 | 100.70380 | 5379 ft | 264 kts | 194° |
| 2026-05-05 14:38 | 13.54093 | 100.69476 | 5726 ft | 289 kts | 223° |
| 2026-05-05 14:38 | 13.52939 | 100.67697 | 6074 ft | 311 kts | 250° |
| 2026-05-05 14:39 | 13.52509 | 100.65475 | 6441 ft | 332 kts | 269° |
| 2026-05-05 14:39 | 13.52799 | 100.63080 | 7025 ft | 342 kts | 288° |
| 2026-05-05 14:39 | 13.53807 | 100.60889 | 7912 ft | 341 kts | 305° |
| 2026-05-05 14:39 | 13.55383 | 100.59117 | 8667 ft | 334 kts | 323° |
| 2026-05-05 14:40 | 13.57340 | 100.57961 | 9422 ft | 315 kts | 342° |
| 2026-05-05 14:40 | 13.59367 | 100.57545 | 10165 ft | 288 kts | 3° |
| 2026-05-05 14:40 | 13.61252 | 100.57890 | 10915 ft | 269 kts | 24° |
| 2026-05-05 14:40 | 13.62755 | 100.58933 | 11354 ft | 267 kts | 53° |
| 2026-05-05 14:41 | 13.63592 | 100.60622 | 11350 ft | 284 kts | 81° |
| 2026-05-05 14:41 | 13.63530 | 100.62698 | 11362 ft | 303 kts | 104° |
| 2026-05-05 14:41 | 13.62686 | 100.64769 | 11354 ft | 326 kts | 122° |
| 2026-05-05 14:41 | 13.61175 | 100.66577 | 11347 ft | 349 kts | 139° |
| 2026-05-05 14:42 | 13.59241 | 100.72845 | 11347 ft | 369 kts | 149° |
| 2026-05-05 14:42 | 13.54048 | 100.82019 | 11357 ft | 382 kts | 60° |
| 2026-05-05 14:42 | 13.55149 | 100.84691 | 11329 ft | 396 kts | 76° |
| 2026-05-05 14:42 | 13.55514 | 100.87523 | 11349 ft | 401 kts | 90° |
| 2026-05-05 14:43 | 13.55175 | 100.90349 | 11350 ft | 401 kts | 104° |
| 2026-05-05 14:43 | 13.54154 | 100.92999 | 11325 ft | 402 kts | 118° |
| 2026-05-05 14:43 | 13.59144 | 100.92799 | 11300 ft | 398 kts | 123° |
| 2026-05-05 14:43 | 13.57592 | 100.95084 | 11874 ft | 379 kts | 123° |
| 2026-05-05 14:44 | 13.56205 | 100.97356 | 11907 ft | 377 kts | 124° |
| 2026-05-05 14:44 | 13.54440 | 100.99352 | 11751 ft | 383 kts | 140° |
| 2026-05-05 14:44 | 13.52164 | 101.00831 | 11604 ft | 388 kts | 155° |
| 2026-05-05 14:44 | 13.50332 | 100.99186 | 11544 ft | 389 kts | 231° |
| 2026-05-05 14:45 | 13.49042 | 100.99872 | 11647 ft | 385 kts | 82° |
| 2026-05-05 14:45 | 13.48465 | 100.98478 | 11627 ft | 385 kts | 270° |
| 2026-05-05 14:45 | 13.48131 | 100.95762 | 11423 ft | 390 kts | 254° |
| 2026-05-05 14:45 | 13.47093 | 100.93169 | 11258 ft | 393 kts | 239° |
| 2026-05-05 14:46 | 13.45427 | 100.90938 | 11143 ft | 395 kts | 212° |
| 2026-05-05 14:46 | 13.44161 | 101.02353 | 11715 ft | 375 kts | 63° |
| 2026-05-05 14:46 | 13.62551 | 100.78354 | 11688 ft | 369 kts | 271° |